KCAD

Details ICAO KCAD
Name WEXFORD CO
Region United States
Timezone America/Detroit (UTC-5.0)
Plans Departing 0
Arriving 7
Stats Elevation 1,307 ft / 398 m (AMSL)
Location 44.275132° -85.416549°
Runways 2
Magnetic Variation 6.139° W
Sunrise 2017-12-15 13:12:01 UTC / 2017-12-15 08:12:01 Local
Sunset 2017-12-15 22:04:38 UTC / 2017-12-15 17:04:38 Local
Advertisement - Login to hide

Runways

ID Width Length Bearing (true) Bearing (mag) Surface Threshold Offset Overrun Length
07 100 ft / 30 m 4,991 ft / 1,521 m 66.28° 72.42° Asphalt 0 ft / 0 m 0 ft / 0 m
18 150 ft / 46 m 2,007 ft / 612 m 179.43° 185.57° Grass 0 ft / 0 m 0 ft / 0 m
25 100 ft / 30 m 4,991 ft / 1,521 m 246.29° 252.43° Asphalt 0 ft / 0 m 0 ft / 0 m
36 150 ft / 46 m 2,007 ft / 612 m 359.43° 5.57° Grass 0 ft / 0 m 0 ft / 0 m

Map

Weather


0- 5 10 15 20 25 30 35+ Temperature / ° C

Clouds and Precipitation
Forecast for 2017-12-16 06:00 UTC. Updated 13 minutes ago

Ground ~20,000 ft ~40,000 ft Winds

METAR

KCAD 160335Z AUTO 23003KT 10SM BKN027 OVC085 M08/M10 A2978 RMK AO2 T10881105

TAF

Not found

Frequencies

Recorded 128.32 MHz AWOS 3
Unicom 122.80 MHz CTAF/UNICOM
Warning: Do not use this data for real-world aviation or navigation. No guarantee of current accuracy is given.